createdAt,value
2022-12-31T00:01:27.322Z,39.50
2022-12-31T00:03:57.245Z,43.35
2022-12-31T00:06:28.989Z,47.05
2022-12-31T00:08:59.893Z,45.15
2022-12-31T00:11:30.611Z,35.88
2022-12-31T00:13:59.946Z,36.35
2022-12-31T00:16:33.611Z,36.13
2022-12-31T00:19:03.279Z,30.25
2022-12-31T00:21:33.914Z,34.47
2022-12-31T00:24:03.667Z,33.53
2022-12-31T00:26:34.421Z,31.27
2022-12-31T00:29:04.289Z,30.95
2022-12-31T00:31:36.225Z,31.08
2022-12-31T00:34:06.447Z,28.77
2022-12-31T00:36:37.199Z,28.90
2022-12-31T00:39:08.401Z,28.67
2022-12-31T00:41:37.431Z,25.48
2022-12-31T00:44:06.488Z,24.65
2022-12-31T00:49:04.673Z,22.48
2022-12-31T00:51:33.539Z,24.55
2022-12-31T00:54:03.224Z,26.50
2022-12-31T00:56:33.031Z,28.33
2022-12-31T00:59:02.415Z,21.10
2022-12-31T01:01:33.632Z,23.65
2022-12-31T01:04:06.688Z,21.30
2022-12-31T01:06:35.726Z,20.92
2022-12-31T01:09:05.719Z,20.52
2022-12-31T01:11:35.315Z,19.33
2022-12-31T01:14:06.826Z,20.60
2022-12-31T01:16:39.844Z,16.85
2022-12-31T01:19:12.801Z,19.10
2022-12-31T01:21:42.807Z,17.30
2022-12-31T01:24:12.476Z,17.63
2022-12-31T01:26:41.651Z,14.88
2022-12-31T01:29:11.294Z,15.75
2022-12-31T01:31:40.714Z,19.88
2022-12-31T01:34:11.170Z,19.05
2022-12-31T01:36:40.336Z,18.88
2022-12-31T01:39:10.432Z,19.05
2022-12-31T01:41:43.476Z,19.33
2022-12-31T01:44:49.498Z,16.92
2022-12-31T01:47:27.021Z,17.60
2022-12-31T01:50:00.669Z,19.38
2022-12-31T01:52:33.912Z,17.50
2022-12-31T01:55:07.813Z,19.65
2022-12-31T01:57:37.979Z,15.70
2022-12-31T02:00:08.297Z,13.93
2022-12-31T02:02:37.759Z,15.35
2022-12-31T02:05:18.343Z,15.00
2022-12-31T02:07:49.606Z,16.25
2022-12-31T02:10:18.707Z,15.55
2022-12-31T02:12:48.057Z,19.85
2022-12-31T02:15:17.461Z,20.42
2022-12-31T02:17:54.800Z,22.73
2022-12-31T02:20:56.055Z,36.55
2022-12-31T02:23:46.145Z,33.50
2022-12-31T02:26:50.754Z,24.63
2022-12-31T02:29:57.803Z,23.30
2022-12-31T02:32:38.331Z,18.85
2022-12-31T02:35:13.469Z,16.70
2022-12-31T02:37:46.450Z,17.85
2022-12-31T02:40:18.779Z,20.00
2022-12-31T02:42:54.903Z,18.48
2022-12-31T02:45:30.831Z,20.65
2022-12-31T02:48:23.527Z,21.42
2022-12-31T02:51:02.046Z,23.30
2022-12-31T02:54:00.081Z,23.73
2022-12-31T02:56:37.043Z,26.27
2022-12-31T02:59:31.701Z,25.77
2022-12-31T03:02:16.435Z,24.17
2022-12-31T03:04:49.913Z,21.15
2022-12-31T03:07:21.911Z,21.23
2022-12-31T03:09:51.282Z,17.52
2022-12-31T03:12:39.865Z,22.05
2022-12-31T03:15:20.315Z,20.10
2022-12-31T03:17:55.414Z,20.98
2022-12-31T03:20:46.683Z,18.40
2022-12-31T03:23:19.142Z,19.00
2022-12-31T03:25:47.126Z,24.77
2022-12-31T03:28:19.144Z,24.17
2022-12-31T03:30:50.184Z,26.10
2022-12-31T03:33:20.036Z,24.85
2022-12-31T03:35:51.328Z,24.13
2022-12-31T03:38:20.596Z,24.85
2022-12-31T03:40:51.113Z,22.17
2022-12-31T03:43:20.467Z,22.70
2022-12-31T03:45:50.402Z,26.50
2022-12-31T03:48:19.712Z,24.17
2022-12-31T03:50:50.231Z,22.50
2022-12-31T03:53:19.097Z,22.15
2022-12-31T03:55:52.320Z,23.35
2022-12-31T03:58:21.375Z,22.48
2022-12-31T04:00:51.022Z,23.67
2022-12-31T04:03:20.026Z,20.45
2022-12-31T04:05:55.594Z,20.20
2022-12-31T04:08:24.580Z,20.02
2022-12-31T04:10:53.416Z,21.73
2022-12-31T04:13:22.236Z,23.13
2022-12-31T04:15:52.148Z,21.55
2022-12-31T04:18:20.956Z,25.20
2022-12-31T04:20:49.943Z,21.63
2022-12-31T04:23:20.225Z,23.48
2022-12-31T04:25:49.075Z,23.35
2022-12-31T04:28:17.935Z,22.83
2022-12-31T04:30:46.930Z,26.00
2022-12-31T04:33:15.971Z,24.77
2022-12-31T04:35:45.466Z,22.50
2022-12-31T04:38:14.335Z,24.60
2022-12-31T04:41:00.186Z,24.98
2022-12-31T04:43:29.046Z,27.58
2022-12-31T04:45:57.993Z,27.90
2022-12-31T04:48:26.989Z,26.27
2022-12-31T04:50:55.817Z,28.02
2022-12-31T04:53:27.717Z,31.85
2022-12-31T04:55:58.098Z,31.00
2022-12-31T04:58:26.943Z,34.78
2022-12-31T05:00:56.666Z,28.98
2022-12-31T05:03:27.176Z,29.45
2022-12-31T05:06:01.155Z,29.63
2022-12-31T05:08:30.873Z,28.80
2022-12-31T05:11:02.076Z,27.08
2022-12-31T05:13:33.581Z,34.17
2022-12-31T05:16:03.508Z,37.90
2022-12-31T05:18:33.482Z,35.72
2022-12-31T05:21:02.878Z,32.65
2022-12-31T05:23:31.983Z,33.38
2022-12-31T05:26:02.401Z,30.20
2022-12-31T05:28:32.660Z,33.08
2022-12-31T05:31:02.139Z,30.55
2022-12-31T05:33:31.124Z,29.67
2022-12-31T05:35:59.987Z,28.27
2022-12-31T05:38:29.603Z,30.30
2022-12-31T05:41:04.640Z,29.00
2022-12-31T05:46:03.293Z,24.45
2022-12-31T05:48:32.826Z,26.42
2022-12-31T05:51:02.093Z,28.58
2022-12-31T05:53:30.945Z,27.45
2022-12-31T05:55:59.760Z,32.20
2022-12-31T05:58:30.070Z,32.13
2022-12-31T06:00:58.924Z,29.73
2022-12-31T06:03:27.814Z,26.50
2022-12-31T06:05:56.639Z,28.23
2022-12-31T06:08:25.477Z,28.60
2022-12-31T06:10:55.330Z,27.13
2022-12-31T06:13:24.190Z,26.80
2022-12-31T06:15:54.530Z,27.67
2022-12-31T06:18:23.518Z,27.38
2022-12-31T06:20:52.381Z,30.83
2022-12-31T06:23:21.245Z,26.42
2022-12-31T06:25:50.063Z,39.00
2022-12-31T06:28:20.508Z,30.48
2022-12-31T06:30:50.048Z,29.15
2022-12-31T06:33:21.581Z,32.08
2022-12-31T06:35:50.589Z,46.38
2022-12-31T06:38:19.704Z,48.58
2022-12-31T06:40:48.564Z,48.10
2022-12-31T06:43:17.440Z,43.10
2022-12-31T06:45:46.311Z,33.83
2022-12-31T06:48:15.306Z,44.88
2022-12-31T06:50:45.558Z,37.92
2022-12-31T06:53:14.462Z,40.20
2022-12-31T06:55:43.891Z,34.45
2022-12-31T06:58:14.304Z,53.28
2022-12-31T07:00:52.119Z,57.97
2022-12-31T07:03:31.895Z,62.53
2022-12-31T07:06:08.607Z,42.20
2022-12-31T07:08:49.340Z,37.20
2022-12-31T07:11:23.353Z,31.90
2022-12-31T07:14:04.420Z,31.23
2022-12-31T07:16:45.563Z,31.88
2022-12-31T07:19:26.041Z,33.55
2022-12-31T07:21:59.482Z,31.63
2022-12-31T07:24:29.336Z,32.08
2022-12-31T07:27:11.857Z,32.15
2022-12-31T07:29:55.389Z,29.00
2022-12-31T07:32:35.759Z,31.08
2022-12-31T07:35:11.364Z,26.70
2022-12-31T07:37:52.854Z,31.30
2022-12-31T07:40:31.351Z,29.60
2022-12-31T07:43:10.983Z,24.00
2022-12-31T07:45:47.617Z,22.40
2022-12-31T07:48:24.415Z,20.85
2022-12-31T07:50:55.517Z,20.48
2022-12-31T07:53:27.309Z,20.83
2022-12-31T07:55:58.355Z,18.17
2022-12-31T07:58:40.519Z,18.45
2022-12-31T08:01:13.037Z,17.98
2022-12-31T08:03:56.078Z,16.17
2022-12-31T08:06:33.766Z,16.35
2022-12-31T08:09:09.643Z,18.02
2022-12-31T08:11:45.717Z,20.02
2022-12-31T08:14:16.009Z,19.30
2022-12-31T08:16:45.423Z,20.33
2022-12-31T08:19:24.031Z,20.58
2022-12-31T08:22:05.787Z,17.85
2022-12-31T08:24:44.200Z,19.02
2022-12-31T08:27:22.243Z,21.27
2022-12-31T08:30:02.386Z,19.48
2022-12-31T08:32:37.727Z,16.35
2022-12-31T08:37:49.451Z,14.75
2022-12-31T08:40:27.098Z,12.98
2022-12-31T08:43:13.596Z,13.75
2022-12-31T08:45:47.724Z,10.25
2022-12-31T08:48:26.380Z,12.30
2022-12-31T08:50:55.862Z,9.07
2022-12-31T08:53:25.584Z,9.35
2022-12-31T08:56:02.053Z,8.65
2022-12-31T08:58:43.669Z,8.10
2022-12-31T09:01:19.000Z,9.23
2022-12-31T09:04:12.420Z,8.60
2022-12-31T09:06:48.256Z,6.22
2022-12-31T09:09:28.915Z,4.70
2022-12-31T09:12:05.757Z,5.03
2022-12-31T09:14:48.164Z,5.50
2022-12-31T09:17:35.867Z,3.47
2022-12-31T09:20:06.332Z,4.07
2022-12-31T09:22:35.602Z,3.50
2022-12-31T09:25:05.065Z,4.10
2022-12-31T09:27:44.778Z,3.30
2022-12-31T09:30:17.033Z,3.70
2022-12-31T09:33:01.132Z,2.95
2022-12-31T09:35:38.086Z,3.05
2022-12-31T09:38:20.105Z,3.90
2022-12-31T09:41:15.473Z,3.33
2022-12-31T09:44:21.410Z,2.60
2022-12-31T09:47:27.975Z,3.03
2022-12-31T09:52:57.065Z,5.57
2022-12-31T09:55:35.147Z,3.92
2022-12-31T09:58:18.020Z,3.42
2022-12-31T10:00:53.574Z,3.75
2022-12-31T10:03:37.981Z,5.50
2022-12-31T10:06:19.130Z,2.58
2022-12-31T10:09:18.541Z,4.07
2022-12-31T10:12:17.613Z,8.20
2022-12-31T10:15:04.923Z,6.22
2022-12-31T10:17:48.885Z,15.02
2022-12-31T10:20:34.150Z,4.57
2022-12-31T10:23:22.314Z,13.05
2022-12-31T10:26:07.165Z,4.07
2022-12-31T10:28:47.502Z,5.67
2022-12-31T10:31:38.276Z,4.32
2022-12-31T10:34:16.376Z,5.25
2022-12-31T10:36:54.498Z,7.85
2022-12-31T10:39:43.786Z,2.63
2022-12-31T10:42:46.790Z,12.60
2022-12-31T10:45:41.110Z,4.18
2022-12-31T10:48:30.857Z,4.40
2022-12-31T10:51:37.428Z,3.05
2022-12-31T10:57:40.968Z,2.55
2022-12-31T11:00:16.997Z,3.50
2022-12-31T11:03:34.339Z,3.13
2022-12-31T11:06:47.715Z,1.88
2022-12-31T11:09:56.133Z,3.03
2022-12-31T11:12:52.371Z,2.72
2022-12-31T11:15:49.809Z,2.30
2022-12-31T11:18:30.909Z,3.22
2022-12-31T11:21:26.239Z,3.25
2022-12-31T11:24:06.239Z,2.28
2022-12-31T11:26:48.577Z,1.45
2022-12-31T11:29:31.233Z,2.58
2022-12-31T11:32:21.470Z,2.22
2022-12-31T11:35:13.341Z,2.22
2022-12-31T11:37:46.905Z,2.47
2022-12-31T11:40:37.925Z,1.98
2022-12-31T11:43:21.173Z,2.63
2022-12-31T11:46:11.134Z,3.10
2022-12-31T11:48:52.249Z,2.60
2022-12-31T11:51:50.656Z,2.63
2022-12-31T11:54:47.264Z,2.20
2022-12-31T11:57:23.608Z,2.72
2022-12-31T11:59:57.733Z,2.45
2022-12-31T12:02:29.560Z,2.72
2022-12-31T12:05:10.338Z,2.83
2022-12-31T12:07:40.147Z,4.13
2022-12-31T12:10:22.403Z,3.33
2022-12-31T12:12:51.861Z,2.63
2022-12-31T12:15:25.887Z,2.05
2022-12-31T12:17:57.158Z,2.80
2022-12-31T12:20:32.060Z,2.13
2022-12-31T12:23:13.851Z,2.40
2022-12-31T12:25:44.470Z,2.67
2022-12-31T12:28:21.393Z,2.50
2022-12-31T12:30:56.465Z,1.83
2022-12-31T12:33:25.815Z,2.17
2022-12-31T12:36:07.987Z,2.83
2022-12-31T12:38:37.680Z,3.65
2022-12-31T12:41:11.147Z,2.50
2022-12-31T12:43:41.035Z,2.88
2022-12-31T12:46:21.693Z,3.83
2022-12-31T12:48:56.677Z,2.55
2022-12-31T12:51:43.532Z,3.50
2022-12-31T12:54:26.925Z,3.42
2022-12-31T12:57:05.857Z,3.08
2022-12-31T13:00:09.930Z,2.70
2022-12-31T13:02:56.955Z,2.08
2022-12-31T13:05:38.997Z,2.00
2022-12-31T13:08:22.277Z,1.55
2022-12-31T13:11:03.625Z,2.05
2022-12-31T13:13:43.327Z,1.02
2022-12-31T13:16:20.060Z,1.15
2022-12-31T13:18:56.268Z,1.77
2022-12-31T13:21:43.243Z,1.20
2022-12-31T13:24:23.952Z,0.88
2022-12-31T13:26:59.080Z,1.20
2022-12-31T13:29:32.639Z,0.95
2022-12-31T13:32:05.707Z,1.25
2022-12-31T13:34:40.853Z,1.23
2022-12-31T13:37:23.572Z,1.90
2022-12-31T13:40:00.887Z,1.58
2022-12-31T13:42:40.523Z,1.80
2022-12-31T13:45:14.656Z,2.08
2022-12-31T13:47:47.791Z,1.63
2022-12-31T13:50:22.211Z,1.85
2022-12-31T13:52:57.142Z,2.30
2022-12-31T13:55:33.410Z,1.65
2022-12-31T13:58:07.160Z,2.28
2022-12-31T14:00:42.210Z,2.13
2022-12-31T14:03:18.449Z,2.67
2022-12-31T14:05:53.683Z,2.38
2022-12-31T14:11:02.064Z,3.13
2022-12-31T14:13:44.690Z,1.48
2022-12-31T14:16:21.390Z,2.22
2022-12-31T14:19:00.338Z,2.47
2022-12-31T14:21:33.944Z,2.90
2022-12-31T14:24:08.294Z,5.03
2022-12-31T14:26:41.959Z,4.32
2022-12-31T14:29:27.016Z,4.65
2022-12-31T14:32:20.194Z,6.50
2022-12-31T14:35:00.304Z,6.60
2022-12-31T14:37:37.397Z,9.25
2022-12-31T14:40:20.188Z,9.60
2022-12-31T14:43:03.307Z,8.70
2022-12-31T14:45:45.598Z,4.97
2022-12-31T14:48:25.097Z,7.75
2022-12-31T14:50:54.955Z,8.38
2022-12-31T14:53:26.022Z,3.80
2022-12-31T14:55:59.878Z,4.93
2022-12-31T14:58:36.501Z,3.85
2022-12-31T15:01:08.969Z,7.03
2022-12-31T15:03:45.403Z,13.15
2022-12-31T15:06:50.011Z,13.50
2022-12-31T15:09:30.644Z,18.02
2022-12-31T15:12:18.232Z,14.55
2022-12-31T15:15:03.308Z,21.35
2022-12-31T15:17:44.863Z,18.65
2022-12-31T15:20:38.882Z,19.33
2022-12-31T15:23:19.102Z,20.02
2022-12-31T15:25:50.076Z,16.35
2022-12-31T15:28:33.392Z,3.78
2022-12-31T15:31:20.532Z,9.63
2022-12-31T15:34:00.579Z,13.40
2022-12-31T15:36:31.419Z,13.82
2022-12-31T15:39:35.944Z,17.48
2022-12-31T15:45:02.099Z,37.25
2022-12-31T15:47:37.803Z,38.17
2022-12-31T15:50:09.434Z,32.28
2022-12-31T15:52:43.539Z,34.15
2022-12-31T15:55:24.164Z,15.68
2022-12-31T15:57:55.354Z,27.23
2022-12-31T16:00:25.493Z,31.08
2022-12-31T16:02:56.891Z,34.50
2022-12-31T16:05:27.670Z,37.47
2022-12-31T16:07:58.637Z,43.53
2022-12-31T16:10:30.241Z,47.92
2022-12-31T16:13:00.938Z,52.20
2022-12-31T16:15:32.898Z,48.97
2022-12-31T16:18:06.236Z,43.72
2022-12-31T16:20:35.652Z,39.85
2022-12-31T16:23:20.687Z,39.13
2022-12-31T16:25:50.826Z,42.42
2022-12-31T16:28:21.985Z,33.03
2022-12-31T16:31:00.960Z,35.28
2022-12-31T16:33:31.982Z,39.65
2022-12-31T16:36:03.486Z,36.72
2022-12-31T16:38:34.432Z,37.45
2022-12-31T16:41:18.216Z,36.53
2022-12-31T16:43:48.579Z,30.98
2022-12-31T16:46:21.891Z,26.90
2022-12-31T16:48:56.838Z,24.58
2022-12-31T16:51:30.131Z,26.45
2022-12-31T16:53:59.661Z,35.78
2022-12-31T16:56:34.158Z,29.10
2022-12-31T16:59:07.615Z,29.60
2022-12-31T17:01:38.689Z,25.88
2022-12-31T17:04:12.548Z,31.73
2022-12-31T17:06:41.334Z,32.28
2022-12-31T17:09:15.187Z,32.45
2022-12-31T17:11:46.540Z,32.00
2022-12-31T17:14:17.680Z,25.63
2022-12-31T17:17:02.154Z,30.85
2022-12-31T17:22:22.808Z,38.83
2022-12-31T17:25:02.019Z,40.78
2022-12-31T17:27:31.589Z,41.05
2022-12-31T17:30:20.651Z,42.40
2022-12-31T17:32:51.859Z,40.72
2022-12-31T17:35:33.338Z,46.42
2022-12-31T17:38:32.278Z,41.03
2022-12-31T17:41:17.560Z,39.85
2022-12-31T17:43:46.559Z,37.33
2022-12-31T17:46:17.999Z,41.47
2022-12-31T17:48:52.849Z,38.80
2022-12-31T17:51:24.363Z,38.38
2022-12-31T17:53:53.710Z,39.88
2022-12-31T17:56:22.570Z,46.38
2022-12-31T17:58:53.671Z,52.88
2022-12-31T18:01:24.274Z,52.40
2022-12-31T18:03:53.333Z,51.33
2022-12-31T18:06:23.627Z,48.67
2022-12-31T18:08:52.658Z,46.95
2022-12-31T18:11:24.027Z,48.03
2022-12-31T18:13:55.239Z,48.30
2022-12-31T18:16:24.177Z,49.10
2022-12-31T18:18:53.152Z,55.25
2022-12-31T18:21:28.199Z,53.00
2022-12-31T18:26:25.867Z,51.08
2022-12-31T18:28:54.822Z,55.42
2022-12-31T18:31:26.078Z,54.58
2022-12-31T18:33:57.271Z,56.60
2022-12-31T18:36:29.033Z,57.28
2022-12-31T18:38:57.930Z,54.65
2022-12-31T18:41:28.313Z,53.63
2022-12-31T18:43:57.403Z,56.70
2022-12-31T18:46:27.094Z,52.75
2022-12-31T18:48:55.991Z,53.25
2022-12-31T18:51:31.724Z,49.90
2022-12-31T18:54:03.639Z,51.88
2022-12-31T18:56:32.859Z,60.35
2022-12-31T18:59:02.582Z,59.70
2022-12-31T19:01:34.826Z,57.58
2022-12-31T19:04:06.334Z,56.65
2022-12-31T19:06:35.200Z,55.88
2022-12-31T19:09:13.202Z,52.25
2022-12-31T19:11:54.822Z,55.15
2022-12-31T19:14:26.669Z,59.30
2022-12-31T19:16:57.077Z,57.90
2022-12-31T19:19:26.387Z,48.03
2022-12-31T19:21:55.317Z,51.85
2022-12-31T19:24:27.543Z,49.72
2022-12-31T19:26:56.689Z,53.63
2022-12-31T19:29:27.363Z,47.15
2022-12-31T19:31:58.140Z,49.83
2022-12-31T19:34:27.080Z,52.95
2022-12-31T19:36:55.926Z,57.95
2022-12-31T19:39:26.180Z,55.38
2022-12-31T19:41:59.103Z,53.80
2022-12-31T19:44:28.619Z,57.63
2022-12-31T19:46:57.556Z,46.92
2022-12-31T19:49:26.409Z,40.65
2022-12-31T19:51:55.191Z,40.53
2022-12-31T19:54:25.553Z,41.38
2022-12-31T19:56:54.437Z,45.08
2022-12-31T19:59:23.256Z,43.33
2022-12-31T20:01:52.181Z,40.50
2022-12-31T20:04:22.519Z,36.28
2022-12-31T20:06:51.443Z,34.55
2022-12-31T20:09:20.385Z,39.28
2022-12-31T20:11:50.575Z,37.25
2022-12-31T20:14:19.453Z,38.50
2022-12-31T20:16:48.389Z,36.80
2022-12-31T20:19:17.894Z,41.15
2022-12-31T20:21:46.762Z,41.97
2022-12-31T20:24:15.717Z,42.63
2022-12-31T20:26:44.656Z,40.67
2022-12-31T20:29:14.997Z,41.58
2022-12-31T20:31:43.868Z,45.25
2022-12-31T20:34:12.927Z,51.13
2022-12-31T20:36:42.197Z,49.25
2022-12-31T20:39:11.106Z,47.60
2022-12-31T20:41:39.945Z,41.30
2022-12-31T20:44:08.963Z,41.75
2022-12-31T20:46:39.355Z,46.03
2022-12-31T20:49:08.678Z,41.67
2022-12-31T20:51:37.684Z,38.95
2022-12-31T20:54:08.997Z,41.63
2022-12-31T20:56:39.233Z,42.03
2022-12-31T20:59:10.360Z,39.10
2022-12-31T21:02:19.359Z,40.63
2022-12-31T21:04:30.111Z,36.45
2022-12-31T21:06:59.099Z,44.03
2022-12-31T21:09:28.113Z,49.20
2022-12-31T21:12:14.189Z,52.10
2022-12-31T21:14:45.032Z,51.00
2022-12-31T21:17:15.412Z,45.15
2022-12-31T21:19:44.311Z,45.58
2022-12-31T21:22:13.162Z,65.50
2022-12-31T21:24:42.097Z,65.30
2022-12-31T21:27:10.976Z,65.78
2022-12-31T21:30:10.040Z,58.47
2022-12-31T21:32:30.872Z,47.00
2022-12-31T21:35:31.542Z,51.83
2022-12-31T21:37:59.285Z,53.08
2022-12-31T21:40:29.851Z,47.45
2022-12-31T21:42:58.706Z,102.75
2022-12-31T21:45:27.697Z,116.95
2022-12-31T21:48:18.765Z,97.10
2022-12-31T21:50:48.955Z,75.50
2022-12-31T21:53:23.905Z,60.83
2022-12-31T21:56:14.539Z,61.55
2022-12-31T21:58:45.305Z,50.97
2022-12-31T22:01:37.534Z,48.30
2022-12-31T22:04:28.186Z,47.97
2022-12-31T22:06:57.022Z,48.55
2022-12-31T22:09:25.951Z,62.08
2022-12-31T22:11:54.842Z,56.58
2022-12-31T22:14:23.620Z,74.93
2022-12-31T22:16:52.583Z,74.63
2022-12-31T22:19:22.741Z,77.97
2022-12-31T22:21:51.749Z,75.38
2022-12-31T22:24:20.575Z,77.22
2022-12-31T22:26:49.573Z,78.55
2022-12-31T22:29:19.929Z,76.57
2022-12-31T22:31:48.799Z,69.30
2022-12-31T22:34:18.095Z,70.28
2022-12-31T22:36:48.351Z,76.88
2022-12-31T22:39:43.344Z,105.40
2022-12-31T22:42:06.497Z,83.30
2022-12-31T22:44:35.303Z,81.18
2022-12-31T22:47:04.233Z,73.88
2022-12-31T22:49:33.081Z,67.63
2022-12-31T22:52:07.155Z,62.20
2022-12-31T22:54:37.768Z,64.63
2022-12-31T22:57:06.581Z,57.90
2022-12-31T22:59:35.487Z,57.25
2022-12-31T23:02:04.343Z,70.65
2022-12-31T23:04:33.309Z,76.75
2022-12-31T23:07:03.619Z,81.38
2022-12-31T23:09:49.564Z,72.28
2022-12-31T23:12:18.544Z,72.07
2022-12-31T23:15:04.719Z,68.65
2022-12-31T23:17:50.747Z,65.28
2022-12-31T23:20:38.834Z,66.40
2022-12-31T23:23:12.969Z,59.17
2022-12-31T23:25:43.688Z,62.88
2022-12-31T23:28:14.621Z,62.53
2022-12-31T23:30:44.294Z,56.70
2022-12-31T23:33:16.675Z,63.17
2022-12-31T23:35:45.803Z,72.55
2022-12-31T23:38:18.391Z,81.38
2022-12-31T23:40:47.375Z,70.63
2022-12-31T23:43:22.247Z,66.28
2022-12-31T23:45:51.736Z,77.88
2022-12-31T23:48:20.840Z,78.28
2022-12-31T23:50:53.903Z,59.30
2022-12-31T23:53:25.164Z,51.92
2022-12-31T23:55:54.626Z,54.70
2022-12-31T23:58:23.811Z,60.38
